Time;durP1;ratioP1;P1;durP2;ratioP2;P2;SDS_P1;SDS_P2;PMS_P1;PMS_P2;Temp;Humidity;BMP_temperature;BMP_pressure;BME280_temperature;BME280_humidity;BME280_pressure;Samples;Min_cycle;Max_cycle;Signal;HPM_P1;HPM_P2
2022/11/06 00:00:35;;;;;;;35.28;20.58;;;9.70;69.70;;;;;;5942715;23;114312;-82
2022/11/06 00:03:02;;;;;;;34.10;19.10;;;9.60;69.60;;;;;;5966239;23;115342;-80
2022/11/06 00:08:24;;;;;;;33.90;18.40;;;9.60;69.60;;;;;;5967696;23;114252;-80
2022/11/06 00:10:51;;;;;;;36.67;19.73;;;9.60;69.60;;;;;;5919926;23;114189;-80
2022/11/06 00:13:18;;;;;;;36.42;18.52;;;9.50;69.50;;;;;;5942110;23;114856;-80
2022/11/06 00:15:45;;;;;;;35.65;18.92;;;9.50;69.60;;;;;;5967091;23;114571;-80
2022/11/06 00:18:12;;;;;;;35.67;20.20;;;9.50;69.80;;;;;;5943175;23;114327;-79
2022/11/06 00:20:39;;;;;;;34.17;19.25;;;9.50;69.70;;;;;;5943596;23;114280;-79
2022/11/06 00:23:06;;;;;;;36.38;17.85;;;9.50;69.70;;;;;;5966860;23;116066;-80
2022/11/06 00:25:33;;;;;;;36.17;20.08;;;9.50;69.90;;;;;;5919549;23;114716;-80
2022/11/06 00:28:00;;;;;;;34.75;21.30;;;9.50;69.80;;;;;;5968027;23;114529;-80
2022/11/06 00:30:27;;;;;;;34.35;18.88;;;9.50;69.80;;;;;;5967057;23;114420;-79
2022/11/06 00:32:54;;;;;;;36.17;19.80;;;9.50;69.80;;;;;;5965475;23;114946;-81
2022/11/06 00:35:21;;;;;;;32.97;19.92;;;9.50;69.80;;;;;;5966224;23;114848;-80
2022/11/06 00:37:48;;;;;;;39.42;19.45;;;9.50;69.90;;;;;;5967416;23;114298;-80
2022/11/06 00:40:16;;;;;;;36.78;20.23;;;9.50;69.80;;;;;;5967620;23;114553;-80
2022/11/06 00:42:43;;;;;;;35.80;20.45;;;9.50;69.90;;;;;;5966926;23;115427;-80
2022/11/06 00:45:10;;;;;;;31.13;19.20;;;9.50;69.90;;;;;;5941725;23;114383;-80
2022/11/06 00:47:37;;;;;;;35.00;19.20;;;9.50;70.10;;;;;;5967860;23;114320;-80
2022/11/06 00:50:04;;;;;;;33.03;17.80;;;9.60;69.80;;;;;;5943949;23;114383;-80
2022/11/06 00:52:31;;;;;;;33.80;19.92;;;9.50;69.80;;;;;;5919170;23;115119;-80
2022/11/06 00:54:58;;;;;;;34.20;18.23;;;9.50;69.80;;;;;;5967122;23;114598;-80
2022/11/06 00:57:25;;;;;;;36.05;19.60;;;9.50;69.80;;;;;;5937858;23;114759;-81
2022/11/06 00:59:52;;;;;;;32.40;18.38;;;9.50;69.80;;;;;;5938170;23;115072;-82
2022/11/06 01:02:19;;;;;;;36.08;20.08;;;9.50;69.80;;;;;;5937224;23;114733;-81
2022/11/06 01:04:47;;;;;;;30.35;18.50;;;9.40;69.80;;;;;;5938697;23;114577;-81
2022/11/06 01:07:14;;;;;;;37.40;19.08;;;9.50;69.80;;;;;;5915277;23;114106;-81
2022/11/06 01:09:41;;;;;;;31.65;18.58;;;9.50;69.80;;;;;;5938262;23;114147;-81
2022/11/06 01:12:08;;;;;;;35.00;18.60;;;9.50;69.80;;;;;;5913752;23;115714;-82
2022/11/06 01:14:40;;;;;;;32.55;17.42;;;9.40;69.70;;;;;;5936953;23;114908;-81
2022/11/06 01:17:07;;;;;;;34.05;19.45;;;9.40;69.90;;;;;;5936070;23;114505;-81
2022/11/06 01:19:34;;;;;;;38.35;19.20;;;9.40;69.60;;;;;;5915192;23;114490;-81
2022/11/06 01:22:01;;;;;;;34.78;17.70;;;9.40;69.70;;;;;;5938386;23;115009;-81
2022/11/06 01:24:28;;;;;;;35.80;19.08;;;9.40;69.80;;;;;;5938705;23;114531;-80
2022/11/06 01:26:56;;;;;;;34.15;17.63;;;9.40;69.90;;;;;;5939879;23;114321;-81
2022/11/06 01:29:43;;;;;;;34.25;17.25;;;9.40;70.00;;;;;;5939497;23;114736;-81
2022/11/06 01:32:10;;;;;;;35.60;17.95;;;9.40;69.70;;;;;;5937584;23;114904;-81
2022/11/06 01:34:37;;;;;;;35.35;18.17;;;9.40;69.80;;;;;;5936759;23;114710;-80
2022/11/06 01:37:04;;;;;;;30.38;17.75;;;9.30;70.00;;;;;;5915267;23;114255;-79
2022/11/06 01:39:31;;;;;;;33.05;17.88;;;9.30;70.10;;;;;;5953698;23;113970;-80
2022/11/06 01:41:58;;;;;;;31.98;17.75;;;9.30;70.10;;;;;;5942003;23;114809;-80
2022/11/06 01:44:34;;;;;;;33.08;17.58;;;9.40;70.00;;;;;;5937446;23;114653;-80
2022/11/06 01:47:03;;;;;;;35.50;18.90;;;9.40;70.00;;;;;;5939808;23;114449;-80
2022/11/06 01:49:35;;;;;;;40.72;20.33;;;9.40;70.00;;;;;;5938957;23;114181;-80
2022/11/06 01:52:06;;;;;;;35.42;18.48;;;9.30;69.90;;;;;;5914289;23;115360;-79
2022/11/06 01:54:34;;;;;;;34.47;17.13;;;9.30;69.80;;;;;;5938952;23;115213;-80
2022/11/06 01:57:01;;;;;;;32.40;17.27;;;9.30;69.70;;;;;;5945851;23;114243;-79
2022/11/06 01:59:30;;;;;;;31.83;17.65;;;9.30;69.80;;;;;;5943168;23;114480;-80
2022/11/06 02:01:59;;;;;;;32.47;18.73;;;9.30;69.70;;;;;;5966974;23;114807;-80
2022/11/06 02:04:55;;;;;;;33.75;18.38;;;9.30;69.90;;;;;;5966034;23;115022;-81
2022/11/06 02:07:22;;;;;;;32.33;18.52;;;9.30;69.50;;;;;;5950219;23;114709;-81
2022/11/06 02:09:49;;;;;;;36.10;17.58;;;9.20;69.60;;;;;;5943155;23;114385;-81
2022/11/06 02:12:25;;;;;;;35.22;18.88;;;9.20;69.70;;;;;;5941667;23;115944;-82
2022/11/06 02:14:52;;;;;;;34.95;19.10;;;9.20;69.70;;;;;;5966312;23;114835;-82
2022/11/06 02:17:28;;;;;;;34.53;19.27;;;9.20;69.80;;;;;;5942445;23;114460;-82
2022/11/06 02:20:05;;;;;;;33.95;18.33;;;9.20;69.70;;;;;;5943290;23;114481;-82
2022/11/06 02:22:50;;;;;;;33.97;18.92;;;9.10;69.70;;;;;;5966736;23;117181;-82
2022/11/06 02:25:45;;;;;;;33.42;17.95;;;9.20;69.80;;;;;;5966853;23;114605;-82
2022/11/06 02:28:24;;;;;;;36.92;18.52;;;9.20;69.70;;;;;;5967447;23;114398;-83
2022/11/06 02:30:52;;;;;;;37.40;19.00;;;9.10;69.80;;;;;;5968327;23;114280;-82
2022/11/06 02:33:24;;;;;;;35.60;19.42;;;9.10;69.90;;;;;;5941684;23;114804;-82
2022/11/06 02:35:55;;;;;;;32.65;19.23;;;9.10;70.00;;;;;;5942123;23;114690;-82
2022/11/06 02:38:37;;;;;;;35.97;18.77;;;9.10;70.10;;;;;;5943120;23;114259;-82
2022/11/06 02:41:06;;;;;;;34.50;17.67;;;9.10;70.20;;;;;;5967877;23;114393;-82
2022/11/06 02:43:38;;;;;;;37.40;19.20;;;9.10;70.10;;;;;;5942447;23;115445;-82
2022/11/06 02:46:32;;;;;;;34.83;20.17;;;9.20;70.30;;;;;;5941925;23;115752;-82
2022/11/06 02:49:10;;;;;;;36.75;18.30;;;9.10;70.10;;;;;;5947954;23;114665;-82
2022/11/06 02:51:42;;;;;;;35.47;19.40;;;9.10;70.10;;;;;;5943214;23;114317;-83
2022/11/06 02:54:09;;;;;;;38.05;19.88;;;9.00;70.00;;;;;;5942677;23;115170;-82
2022/11/06 02:56:38;;;;;;;37.60;19.33;;;9.00;69.90;;;;;;5966623;23;114526;-82
2022/11/06 02:59:14;;;;;;;33.38;19.05;;;8.90;69.90;;;;;;5942617;23;114420;-82
2022/11/06 03:01:46;;;;;;;38.67;20.15;;;9.00;70.10;;;;;;5944154;23;114370;-82
2022/11/06 03:04:28;;;;;;;38.17;19.77;;;8.90;69.90;;;;;;5941978;23;114998;-82
2022/11/06 03:07:06;;;;;;;32.00;19.20;;;8.90;70.00;;;;;;5942721;23;114586;-82
2022/11/06 03:09:33;;;;;;;38.85;19.42;;;8.90;70.20;;;;;;5920004;23;114288;-81
2022/11/06 03:12:04;;;;;;;34.33;18.60;;;8.80;70.30;;;;;;5942561;23;114042;-81
2022/11/06 03:14:41;;;;;;;33.05;18.30;;;8.80;70.30;;;;;;5942810;23;114939;-81
2022/11/06 03:17:16;;;;;;;30.83;17.65;;;8.80;70.40;;;;;;5942557;23;114578;-81
2022/11/06 03:19:53;;;;;;;34.03;19.08;;;8.80;70.50;;;;;;5942221;23;114337;-83
2022/11/06 03:22:34;;;;;;;37.50;19.92;;;8.80;70.50;;;;;;5943730;23;114361;-82
2022/11/06 03:25:19;;;;;;;36.10;17.67;;;8.90;70.20;;;;;;5966560;23;114783;-82
2022/11/06 03:27:55;;;;;;;37.90;20.30;;;8.80;70.00;;;;;;5942348;23;114606;-82
2022/11/06 03:30:22;;;;;;;32.15;18.00;;;8.70;70.20;;;;;;5943439;23;114166;-82
2022/11/06 03:33:01;;;;;;;34.08;18.40;;;8.80;70.20;;;;;;5948054;23;114308;-80
2022/11/06 03:35:42;;;;;;;32.22;18.38;;;8.80;70.40;;;;;;5947327;23;115230;-81
2022/11/06 03:38:18;;;;;;;33.58;19.08;;;8.80;70.40;;;;;;5944298;23;115006;-81
2022/11/06 03:40:54;;;;;;;37.20;18.63;;;8.80;70.30;;;;;;5966944;23;114355;-82
2022/11/06 03:43:22;;;;;;;33.05;19.67;;;8.80;70.20;;;;;;5943732;23;114369;-82
2022/11/06 03:45:50;;;;;;;34.78;18.55;;;8.80;70.10;;;;;;5943144;23;114767;-83
2022/11/06 03:48:21;;;;;;;34.38;19.38;;;8.80;70.10;;;;;;5921436;23;115174;-81
2022/11/06 03:50:59;;;;;;;36.55;19.52;;;8.70;70.10;;;;;;5944058;23;114158;-82
2022/11/06 03:53:31;;;;;;;34.42;17.75;;;8.70;70.10;;;;;;5968566;23;114289;-82
2022/11/06 03:56:22;;;;;;;34.03;19.52;;;8.70;70.20;;;;;;5941894;23;114196;-82
2022/11/06 03:58:49;;;;;;;37.15;16.70;;;8.70;70.20;;;;;;5942239;23;114644;-82
2022/11/06 04:01:20;;;;;;;32.45;17.90;;;8.60;70.50;;;;;;5920608;23;114200;-82
2022/11/06 04:04:04;;;;;;;34.67;18.75;;;8.70;70.50;;;;;;5944137;23;114488;-83
2022/11/06 04:07:11;;;;;;;30.73;18.20;;;8.70;70.20;;;;;;5944143;23;114822;-82
2022/11/06 04:15:14;;;;;;;37.25;18.95;;;8.60;70.20;;;;;;5947690;23;115190;-82
2022/11/06 04:17:44;;;;;;;39.50;20.50;;;8.60;70.30;;;;;;5942106;23;114682;-82
2022/11/06 04:21:20;;;;;;;40.22;19.15;;;8.60;70.20;;;;;;5942381;23;115034;-82
2022/11/06 04:23:12;;;;;;;37.33;19.85;;;8.60;70.30;;;;;;5948116;23;114167;-82
2022/11/06 04:29:11;;;;;;;33.67;18.63;;;8.50;70.20;;;;;;5948304;23;114900;-82
2022/11/06 04:31:54;;;;;;;35.65;20.20;;;8.50;70.00;;;;;;5962806;23;115107;-82
2022/11/06 04:34:30;;;;;;;41.03;21.02;;;8.50;70.20;;;;;;5943128;23;114340;-83
2022/11/06 04:37:04;;;;;;;33.47;18.45;;;8.50;70.20;;;;;;5944256;23;114114;-82
2022/11/06 04:39:43;;;;;;;34.13;17.95;;;8.40;70.20;;;;;;5942351;23;114963;-82
2022/11/06 04:42:16;;;;;;;32.55;18.55;;;8.40;70.30;;;;;;5920494;23;116827;-82
2022/11/06 04:44:47;;;;;;;35.95;19.33;;;8.40;70.50;;;;;;5968099;23;114369;-82
2022/11/06 04:47:16;;;;;;;37.17;19.20;;;8.40;70.50;;;;;;5943736;23;114111;-82
2022/11/06 04:49:43;;;;;;;36.42;19.00;;;8.40;70.40;;;;;;5941775;23;115497;-82
2022/11/06 04:52:12;;;;;;;36.05;20.02;;;8.40;70.30;;;;;;5942526;23;114879;-82
2022/11/06 04:54:42;;;;;;;48.35;25.40;;;8.40;70.20;;;;;;5944111;23;115001;-82
2022/11/06 04:57:09;;;;;;;37.25;22.40;;;8.40;70.10;;;;;;5943089;23;114241;-82
2022/11/06 04:59:36;;;;;;;41.08;22.55;;;8.40;70.10;;;;;;5918868;23;115059;-82
2022/11/06 05:02:03;;;;;;;48.03;24.95;;;8.30;70.20;;;;;;5966785;23;115883;-82
2022/11/06 05:04:31;;;;;;;49.13;24.40;;;8.40;70.40;;;;;;5942857;23;114132;-82
2022/11/06 05:06:58;;;;;;;44.65;23.10;;;8.40;70.80;;;;;;5968663;23;113991;-81
2022/11/06 05:09:25;;;;;;;54.33;26.15;;;8.40;70.70;;;;;;5967232;23;115247;-81
2022/11/06 05:11:52;;;;;;;54.58;29.65;;;8.40;70.60;;;;;;5966985;23;114640;-82
2022/11/06 05:14:19;;;;;;;52.25;29.55;;;8.40;70.30;;;;;;5967540;23;114256;-82
2022/11/06 05:16:46;;;;;;;57.42;29.52;;;8.40;70.20;;;;;;5943156;23;114430;-82
2022/11/06 05:19:13;;;;;;;58.72;30.60;;;8.50;70.20;;;;;;5941753;23;114867;-82
2022/11/06 05:24:25;;;;;;;63.97;29.95;;;8.40;70.10;;;;;;5946335;23;114357;-82
2022/11/06 05:26:52;;;;;;;64.15;31.58;;;8.40;70.10;;;;;;5943302;23;114186;-82
2022/11/06 05:29:25;;;;;;;64.85;31.65;;;8.40;70.10;;;;;;5943336;23;117033;-82
2022/11/06 05:31:52;;;;;;;56.17;29.10;;;8.40;70.10;;;;;;5942456;23;114699;-83
2022/11/06 05:34:20;;;;;;;65.68;31.00;;;8.30;70.00;;;;;;5942898;23;114892;-82
2022/11/06 05:36:47;;;;;;;60.47;30.48;;;8.40;70.10;;;;;;5942937;23;114454;-82
2022/11/06 05:39:14;;;;;;;64.50;32.75;;;8.30;70.10;;;;;;5966283;23;114848;-82
2022/11/06 05:41:41;;;;;;;58.65;29.05;;;8.40;70.00;;;;;;5966596;23;114767;-83
2022/11/06 05:44:08;;;;;;;60.83;30.60;;;8.40;70.30;;;;;;5943440;23;114482;-83
2022/11/06 05:46:35;;;;;;;63.78;31.52;;;8.40;70.20;;;;;;5968322;23;114361;-83
2022/11/06 05:49:15;;;;;;;67.70;33.42;;;8.40;70.20;;;;;;5943888;23;118021;-80
2022/11/06 05:51:42;;;;;;;55.72;31.27;;;8.30;70.20;;;;;;5941611;23;118420;-80
2022/11/06 05:54:09;;;;;;;65.93;31.63;;;8.40;70.30;;;;;;5943355;23;114235;-80
2022/11/06 05:56:35;;;;;;;69.05;31.70;;;8.40;70.30;;;;;;5968080;23;114427;-80
2022/11/06 05:59:03;;;;;;;68.13;30.42;;;8.40;70.10;;;;;;5967473;23;114867;-80
2022/11/06 06:01:30;;;;;;;64.57;32.58;;;8.40;70.20;;;;;;5966749;23;114575;-80
2022/11/06 06:03:57;;;;;;;68.10;33.58;;;8.40;70.10;;;;;;5967446;23;114181;-80
2022/11/06 06:06:24;;;;;;;67.35;33.42;;;8.40;70.10;;;;;;5967710;23;113975;-80
2022/11/06 06:08:51;;;;;;;68.40;36.45;;;8.40;70.10;;;;;;5966914;23;115292;-80
2022/11/06 06:11:19;;;;;;;79.55;39.10;;;8.40;70.10;;;;;;5966813;23;114629;-80
2022/11/06 06:13:47;;;;;;;81.38;41.60;;;8.40;70.10;;;;;;5967368;23;114316;-80
2022/11/06 06:16:16;;;;;;;80.88;40.78;;;8.40;70.00;;;;;;5944212;23;114362;-80
2022/11/06 06:18:43;;;;;;;72.55;36.38;;;8.40;69.90;;;;;;5966606;23;114866;-80
2022/11/06 06:21:10;;;;;;;74.75;35.78;;;8.40;69.80;;;;;;5942573;23;114394;-81
2022/11/06 06:23:37;;;;;;;66.40;32.88;;;8.40;69.70;;;;;;5968253;23;114108;-81
2022/11/06 06:26:04;;;;;;;59.80;30.85;;;8.40;70.00;;;;;;5967857;23;114143;-81
2022/11/06 06:28:31;;;;;;;69.30;33.80;;;8.40;70.30;;;;;;5966287;23;114849;-82
2022/11/06 06:31:02;;;;;;;75.55;35.53;;;8.40;70.10;;;;;;5967062;23;115078;-82
2022/11/06 06:33:29;;;;;;;67.53;33.53;;;8.40;70.00;;;;;;5943072;23;115508;-81
2022/11/06 06:35:56;;;;;;;64.85;33.10;;;8.40;69.90;;;;;;5966991;23;114297;-81
2022/11/06 06:38:24;;;;;;;61.85;33.28;;;8.40;69.90;;;;;;5941618;23;115039;-80
2022/11/06 06:40:52;;;;;;;64.55;30.70;;;8.40;70.10;;;;;;5941407;23;114725;-81
2022/11/06 06:43:20;;;;;;;65.50;34.13;;;8.40;69.90;;;;;;5966656;23;114275;-80
2022/11/06 06:45:48;;;;;;;70.10;36.20;;;8.40;70.00;;;;;;5942453;23;114295;-79
2022/11/06 06:48:15;;;;;;;69.43;34.83;;;8.50;69.90;;;;;;5917394;23;114806;-82
2022/11/06 06:50:42;;;;;;;71.63;34.15;;;8.50;69.80;;;;;;5965654;23;114584;-81
2022/11/06 06:53:09;;;;;;;76.00;37.03;;;8.50;69.80;;;;;;5941005;23;114092;-81
2022/11/06 06:55:36;;;;;;;67.97;36.03;;;8.50;69.60;;;;;;5966692;23;114296;-80
2022/11/06 06:58:03;;;;;;;73.88;35.55;;;8.50;69.70;;;;;;5965048;23;114772;-81
2022/11/06 07:00:31;;;;;;;71.53;35.53;;;8.50;69.80;;;;;;5917784;23;116781;-81
2022/11/06 07:03:00;;;;;;;62.03;33.08;;;8.50;69.80;;;;;;5941826;23;114623;-80
2022/11/06 07:05:27;;;;;;;63.13;31.75;;;8.60;70.00;;;;;;5965481;23;114271;-80
2022/11/06 07:07:54;;;;;;;71.18;35.95;;;8.60;70.00;;;;;;5965979;23;114793;-80
2022/11/06 07:10:21;;;;;;;74.28;36.70;;;8.60;69.60;;;;;;5965035;23;117285;-80
2022/11/06 07:12:48;;;;;;;70.53;36.28;;;8.60;69.60;;;;;;5966082;23;114182;-80
2022/11/06 07:15:15;;;;;;;71.10;35.40;;;8.50;69.50;;;;;;5942836;23;114250;-80
2022/11/06 07:17:42;;;;;;;69.90;34.90;;;8.60;69.60;;;;;;5968060;23;114118;-80
2022/11/06 07:20:09;;;;;;;74.07;37.47;;;8.50;69.70;;;;;;5924532;23;115147;-81
2022/11/06 07:22:36;;;;;;;65.50;33.88;;;8.50;69.70;;;;;;5969401;23;114468;-82
2022/11/06 07:25:04;;;;;;;68.38;36.22;;;8.50;69.80;;;;;;5967924;23;114233;-82
2022/11/06 07:27:32;;;;;;;88.47;40.35;;;8.60;69.80;;;;;;5942164;23;114967;-81
2022/11/06 07:30:00;;;;;;;83.00;42.28;;;8.60;69.70;;;;;;5966593;23;114610;-82
2022/11/06 07:32:27;;;;;;;68.95;35.70;;;8.50;69.70;;;;;;5943117;23;114052;-81
2022/11/06 07:34:54;;;;;;;76.22;38.13;;;8.50;69.80;;;;;;5943181;23;114267;-81
2022/11/06 07:37:22;;;;;;;81.22;37.90;;;8.50;69.80;;;;;;5938218;23;115027;-81
2022/11/06 07:39:51;;;;;;;81.18;39.03;;;8.40;69.90;;;;;;5966649;23;114763;-81
2022/11/06 07:42:18;;;;;;;83.25;39.28;;;8.40;69.80;;;;;;5966970;23;114151;-81
2022/11/06 07:44:56;;;;;;;73.53;35.30;;;8.40;69.90;;;;;;5967251;23;114362;-81
2022/11/06 07:47:23;;;;;;;87.07;40.95;;;8.50;70.00;;;;;;5966636;23;114807;-82
2022/11/06 07:54:14;;;;;;;78.75;38.92;;;8.50;69.70;;;;;;5967285;23;114239;-81
2022/11/06 07:56:41;;;;;;;90.40;41.53;;;8.30;69.90;;;;;;5966580;23;114081;-81
2022/11/06 07:59:08;;;;;;;79.80;37.22;;;8.30;69.90;;;;;;5965719;23;115115;-81
2022/11/06 08:01:35;;;;;;;91.13;41.60;;;8.30;70.00;;;;;;5941510;23;114730;-82
2022/11/06 08:04:02;;;;;;;87.30;39.65;;;8.30;70.00;;;;;;5942257;23;114282;-82
2022/11/06 08:06:31;;;;;;;91.68;39.65;;;8.30;70.00;;;;;;5967489;23;114605;-81
2022/11/06 08:08:59;;;;;;;89.35;40.55;;;8.30;70.00;;;;;;5965708;23;115932;-81
2022/11/06 08:11:26;;;;;;;82.40;37.42;;;8.30;70.10;;;;;;5941182;23;114627;-81
2022/11/06 08:13:53;;;;;;;77.88;37.50;;;8.30;70.10;;;;;;5941783;23;114123;-81
2022/11/06 08:16:20;;;;;;;74.05;35.85;;;8.30;70.10;;;;;;5966944;23;114351;-81
2022/11/06 08:18:48;;;;;;;80.55;36.50;;;8.30;70.10;;;;;;5940612;23;114975;-81
2022/11/06 08:21:14;;;;;;;74.57;36.47;;;8.30;70.10;;;;;;5965990;23;114881;-81
2022/11/06 08:23:41;;;;;;;76.70;34.97;;;8.30;69.90;;;;;;5963954;23;115003;-82
2022/11/06 08:26:09;;;;;;;70.75;34.40;;;8.30;70.00;;;;;;5942921;23;114298;-81
2022/11/06 08:28:36;;;;;;;85.10;39.42;;;8.30;70.00;;;;;;5940979;23;114898;-81
2022/11/06 08:31:07;;;;;;;79.30;37.75;;;8.30;70.00;;;;;;5966525;23;114559;-82
2022/11/06 08:33:35;;;;;;;79.28;39.92;;;8.30;70.10;;;;;;5967050;23;115223;-81
2022/11/06 08:36:02;;;;;;;80.50;37.25;;;8.30;70.20;;;;;;5942381;23;114460;-81
2022/11/06 08:38:30;;;;;;;87.75;38.95;;;8.30;70.20;;;;;;5941642;23;114941;-81
2022/11/06 08:40:57;;;;;;;83.47;39.90;;;8.30;70.00;;;;;;5941195;23;114627;-81
2022/11/06 08:43:25;;;;;;;87.63;40.25;;;8.30;70.10;;;;;;5967290;23;114885;-81
2022/11/06 08:45:52;;;;;;;88.45;39.85;;;8.30;69.90;;;;;;5941789;23;114556;-81
2022/11/06 08:48:19;;;;;;;81.35;37.58;;;8.30;70.70;;;;;;5940819;23;114857;-81
2022/11/06 08:50:46;;;;;;;79.05;36.55;;;8.30;71.30;;;;;;5965268;23;117492;-82
2022/11/06 08:53:13;;;;;;;81.68;36.83;;;8.20;71.10;;;;;;5967929;23;114065;-81
2022/11/06 08:55:41;;;;;;;79.35;35.60;;;8.20;70.80;;;;;;5968293;23;114317;-81
2022/11/06 08:58:08;;;;;;;74.00;33.50;;;8.20;71.10;;;;;;5965728;23;114925;-81
2022/11/06 09:00:35;;;;;;;75.53;36.45;;;8.30;70.90;;;;;;5941771;23;114593;-81
2022/11/06 09:03:08;;;;;;;72.47;35.08;;;8.30;71.10;;;;;;5967882;23;114328;-81
2022/11/06 09:05:38;;;;;;;73.73;35.87;;;8.20;70.60;;;;;;5942806;23;114546;-81
2022/11/06 09:08:05;;;;;;;83.38;38.22;;;8.20;70.70;;;;;;5966799;23;116016;-81
2022/11/06 09:10:32;;;;;;;73.18;32.95;;;8.20;70.50;;;;;;5966387;23;114564;-81
2022/11/06 09:13:01;;;;;;;79.35;37.88;;;8.20;70.40;;;;;;5967703;23;114543;-81
2022/11/06 09:15:28;;;;;;;82.20;37.05;;;8.20;70.40;;;;;;5873230;23;114492;-80
2022/11/06 09:17:55;;;;;;;81.28;36.80;;;8.10;70.60;;;;;;5966650;23;115125;-80
2022/11/06 09:20:23;;;;;;;83.10;38.35;;;8.20;70.60;;;;;;5941614;23;114653;-80
2022/11/06 09:22:50;;;;;;;85.40;38.00;;;8.20;70.50;;;;;;5942485;23;114438;-81
2022/11/06 09:25:18;;;;;;;79.95;37.55;;;8.20;70.30;;;;;;5967919;23;114304;-81
2022/11/06 09:27:46;;;;;;;75.18;35.53;;;8.30;70.40;;;;;;5966842;23;115154;-80
2022/11/06 09:30:15;;;;;;;77.03;36.50;;;8.30;70.30;;;;;;5966452;23;115340;-81
2022/11/06 09:32:53;;;;;;;75.32;35.75;;;8.30;70.30;;;;;;5967746;23;114190;-80
2022/11/06 09:35:21;;;;;;;74.03;35.47;;;8.40;70.40;;;;;;5942490;23;114525;-80
2022/11/06 09:37:48;;;;;;;70.63;33.92;;;8.30;70.30;;;;;;5941535;23;114897;-79
2022/11/06 09:40:42;;;;;;;72.47;32.60;;;8.20;70.60;;;;;;5966920;23;114566;-80
2022/11/06 09:43:47;;;;;;;58.42;28.58;;;8.40;70.30;;;;;;5918187;23;114242;-80
2022/11/06 09:46:46;;;;;;;58.80;30.65;;;8.40;70.60;;;;;;5946438;23;114691;-80
2022/11/06 09:49:31;;;;;;;60.85;31.38;;;8.40;70.40;;;;;;5942957;23;116565;-80
2022/11/06 09:52:04;;;;;;;61.47;29.10;;;8.40;70.00;;;;;;5943756;23;115421;-80
2022/11/06 09:54:35;;;;;;;58.58;28.48;;;8.20;70.20;;;;;;5966304;23;114446;-80
2022/11/06 09:57:16;;;;;;;62.85;31.05;;;8.20;70.40;;;;;;5942797;23;114367;-80
2022/11/06 09:59:43;;;;;;;64.32;31.92;;;8.20;70.40;;;;;;5941458;23;115431;-80
2022/11/06 10:02:19;;;;;;;64.53;31.50;;;8.20;70.60;;;;;;5941717;23;114709;-79
2022/11/06 10:04:48;;;;;;;62.80;32.67;;;8.20;70.60;;;;;;5942409;23;114494;-80
2022/11/06 10:07:24;;;;;;;63.55;31.38;;;8.30;70.40;;;;;;5943784;23;114710;-80
2022/11/06 10:09:51;;;;;;;65.60;32.83;;;8.30;70.20;;;;;;5942188;23;115317;-80
2022/11/06 10:12:27;;;;;;;60.60;30.17;;;8.20;70.50;;;;;;5942358;23;114573;-82
2022/11/06 10:15:35;;;;;;;55.90;28.15;;;8.30;70.40;;;;;;5942675;23;115140;-81
2022/11/06 10:18:17;;;;;;;52.55;26.58;;;8.40;69.80;;;;;;5915339;23;114512;-81
2022/11/06 10:20:52;;;;;;;53.85;27.02;;;8.20;69.90;;;;;;5941690;23;114817;-80
2022/11/06 10:23:27;;;;;;;53.75;27.83;;;8.20;70.10;;;;;;5943198;23;114590;-80
2022/11/06 10:26:09;;;;;;;52.97;27.42;;;8.20;70.30;;;;;;5942799;23;114143;-80
2022/11/06 10:28:59;;;;;;;67.07;31.77;;;8.10;70.40;;;;;;5943074;23;115154;-81
2022/11/06 10:31:44;;;;;;;63.67;31.20;;;8.20;70.60;;;;;;5965473;23;115192;-80
2022/11/06 10:34:12;;;;;;;;;;;8.20;70.60;;;;;;5944643;23;114951;-80
2022/11/06 10:36:50;;;;;;;69.82;31.83;;;8.10;70.40;;;;;;5942915;23;114371;-80
2022/11/06 10:39:22;;;;;;;63.33;30.23;;;8.10;70.80;;;;;;5942429;23;114313;-79
2022/11/06 10:41:59;;;;;;;63.00;30.00;;;8.20;71.00;;;;;;5939590;23;115034;-80
2022/11/06 10:44:37;;;;;;;68.80;32.10;;;8.30;70.50;;;;;;5964308;23;118371;-80
2022/11/06 10:47:28;;;;;;;63.38;30.13;;;8.30;70.30;;;;;;5967266;23;114316;-81
2022/11/06 10:49:57;;;;;;;70.32;33.75;;;8.40;70.30;;;;;;5942509;23;114585;-80
2022/11/06 10:52:27;;;;;;;61.00;30.15;;;8.20;70.00;;;;;;5966395;23;114982;-80
2022/11/06 10:55:17;;;;;;;61.25;31.15;;;8.30;70.50;;;;;;5966225;23;114668;-80
2022/11/06 10:58:04;;;;;;;69.82;32.60;;;8.30;70.80;;;;;;5918928;23;114786;-80
2022/11/06 11:00:31;;;;;;;65.72;30.08;;;8.50;70.20;;;;;;5942968;23;114601;-80
2022/11/06 11:03:06;;;;;;;61.83;29.42;;;8.50;70.10;;;;;;5941585;23;115498;-81
2022/11/06 11:05:42;;;;;;;57.70;28.83;;;8.50;70.10;;;;;;5942367;23;114603;-81
2022/11/06 11:08:27;;;;;;;71.90;32.17;;;8.40;70.40;;;;;;5942395;23;114257;-81
2022/11/06 11:11:12;;;;;;;70.97;33.85;;;8.50;70.40;;;;;;5967245;23;114705;-81
2022/11/06 11:14:00;;;;;;;69.55;32.20;;;8.40;70.00;;;;;;5941028;23;114853;-81
2022/11/06 11:16:38;;;;;;;64.22;32.20;;;8.30;70.50;;;;;;5964060;23;115849;-81
2022/11/06 11:19:35;;;;;;;71.28;31.95;;;8.30;70.60;;;;;;5967231;23;114161;-81
2022/11/06 11:22:04;;;;;;;66.70;33.13;;;8.30;70.30;;;;;;5945503;23;115094;-81
2022/11/06 11:24:31;;;;;;;64.45;32.17;;;8.30;70.40;;;;;;5941614;23;114937;-81
2022/11/06 11:27:05;;;;;;;67.32;31.95;;;8.30;70.50;;;;;;5966837;23;114748;-81
2022/11/06 11:29:40;;;;;;;66.57;30.40;;;8.30;70.50;;;;;;5919206;23;114832;-81
2022/11/06 11:32:07;;;;;;;70.97;32.35;;;8.40;70.50;;;;;;5967041;23;114485;-80
2022/11/06 11:34:36;;;;;;;64.65;30.05;;;8.30;70.40;;;;;;5965931;23;115139;-81
2022/11/06 11:37:04;;;;;;;60.88;31.33;;;8.40;70.40;;;;;;5941782;23;114629;-82
2022/11/06 11:39:32;;;;;;;58.70;29.38;;;8.50;70.10;;;;;;5941778;23;114257;-83
2022/11/06 11:42:30;;;;;;;58.35;29.52;;;8.40;70.20;;;;;;5967251;23;114227;-82
2022/11/06 11:45:09;;;;;;;71.88;31.95;;;8.50;70.00;;;;;;5940286;23;115013;-82
2022/11/06 11:47:37;;;;;;;61.03;31.17;;;8.50;70.10;;;;;;5940875;23;115217;-82
2022/11/06 11:50:39;;;;;;;57.40;28.63;;;8.40;70.30;;;;;;5967346;23;114271;-81
2022/11/06 11:53:19;;;;;;;61.35;31.13;;;8.50;70.10;;;;;;5879636;23;114588;-81
2022/11/06 11:55:49;;;;;;;63.13;30.60;;;8.50;70.00;;;;;;5931086;23;114840;-82
2022/11/06 11:58:25;;;;;;;47.95;24.52;;;8.50;70.10;;;;;;5940656;23;114943;-81
2022/11/06 12:01:02;;;;;;;42.17;21.55;;;8.50;69.80;;;;;;5943185;23;114395;-81
2022/11/06 12:03:43;;;;;;;51.00;23.45;;;8.50;69.60;;;;;;5943520;23;114576;-81
2022/11/06 12:06:11;;;;;;;51.20;26.38;;;8.50;69.60;;;;;;5942442;23;115133;-82
2022/11/06 12:08:40;;;;;;;54.05;25.83;;;8.50;69.60;;;;;;5941975;23;115072;-80
2022/11/06 12:11:09;;;;;;;55.95;26.27;;;8.40;69.60;;;;;;5942771;23;114522;-80
2022/11/06 12:13:35;;;;;;;44.28;23.58;;;8.30;69.70;;;;;;5943409;23;114583;-80
2022/11/06 12:16:05;;;;;;;47.45;25.77;;;8.30;69.80;;;;;;5966968;23;114784;-81
2022/11/06 12:18:34;;;;;;;51.33;26.45;;;8.30;69.90;;;;;;5896177;23;116209;-81
2022/11/06 12:21:15;;;;;;;51.42;25.73;;;8.30;70.00;;;;;;5943040;23;114666;-81
2022/11/06 12:23:50;;;;;;;52.50;27.25;;;8.30;70.00;;;;;;5944437;23;115395;-81
2022/11/06 12:26:50;;;;;;;51.67;27.77;;;8.30;70.30;;;;;;5941422;23;116889;-80
2022/11/06 12:29:23;;;;;;;56.75;27.67;;;8.40;70.40;;;;;;5941631;23;114599;-80
2022/11/06 12:32:08;;;;;;;59.63;28.48;;;8.50;70.30;;;;;;5942846;23;114236;-80
2022/11/06 12:34:38;;;;;;;53.13;27.83;;;8.60;69.80;;;;;;5943539;23;114587;-80
2022/11/06 12:37:38;;;;;;;52.10;25.52;;;8.60;69.70;;;;;;5940893;23;114825;-81
2022/11/06 12:40:13;;;;;;;39.17;21.00;;;8.60;69.40;;;;;;5944145;23;114676;-81
2022/11/06 12:43:03;;;;;;;40.85;22.13;;;8.50;69.60;;;;;;5942249;23;114979;-83
2022/11/06 12:45:51;;;;;;;52.38;24.88;;;8.50;69.70;;;;;;5946293;23;114185;-81
2022/11/06 12:48:24;;;;;;;51.80;23.92;;;8.50;69.80;;;;;;5942828;23;116166;-82
2022/11/06 12:51:04;;;;;;;48.38;24.80;;;8.40;69.60;;;;;;5966110;23;114871;-81
2022/11/06 12:54:06;;;;;;;48.50;23.42;;;8.50;69.50;;;;;;5919015;23;114547;-82
2022/11/06 12:56:47;;;;;;;50.45;24.67;;;8.50;69.60;;;;;;5931049;23;114193;-82
2022/11/06 12:59:18;;;;;;;50.10;23.80;;;8.40;69.80;;;;;;5942053;23;115049;-82
2022/11/06 13:02:00;;;;;;;47.08;24.60;;;8.40;69.60;;;;;;5966337;23;115061;-82
2022/11/06 13:04:43;;;;;;;52.22;26.70;;;8.30;70.00;;;;;;5920130;23;114379;-83
2022/11/06 13:07:38;;;;;;;50.90;26.25;;;8.30;70.10;;;;;;5945818;23;114369;-82
2022/11/06 13:10:36;;;;;;;50.08;26.02;;;8.40;70.20;;;;;;5944082;23;115453;-81
2022/11/06 13:13:18;;;;;;;50.55;25.25;;;8.40;69.80;;;;;;5923808;23;114638;-82